Nearby METAR Reports

 

EGEO - Oban, United Kingdom
Distance from station: SSW 18mi, 30km
Updated: 22/10/2018 14:50
NOT Current
Mostly cloudy
Mostly cloudy
 Wind from W
Wind: W 23 mph , 37 km/h
Temperature: 12°C
Dew Point: 8°C
Humidity: 77%
Barometer: 1033 hPa
Clouds: Mostly cloudy
Visibility: 6 miles , 10 km
Cloud details: Few Clouds 549 m
Partly cloudy 853 m
Mostly cloudy 975 m
2018/10/22 13:50 EGEO 221350Z 26020KT 9999 FEW018 SCT028 BKN032 12/08 Q1033
EGPU - Tiree, United Kingdom
Distance from station: WSW 64mi, 103km
Updated: 22/10/2018 20:20
Mostly cloudy
Mostly cloudy
 Wind from W
Wind: W 31 mph , 50 km/h, Gust: 44 mph , 70 km/h
Temperature: 12°C
Dew Point: 8°C
Humidity: 77%
Barometer: 1030 hPa
Clouds: Mostly cloudy
Visibility: 5 miles , 8 km
Cloud details: Few Clouds 610 m
Mostly cloudy 701 m
2018/10/22 19:20 EGPU 221920Z AUTO 27027G38KT 8000 FEW020/// BKN023/// 12/08 Q1030
EGPF - Glasgow, United Kingdom
Distance from station: SSE 66mi, 107km
Updated: 22/10/2018 20:50
Overcast
Overcast
 Wind from WSW
Wind: WSW 21 mph , 33 km/h, Gust: 35 mph , 56 km/h
Temperature: 11°C
Dew Point: 8°C
Humidity: 82%
Barometer: 1031 hPa
Clouds: Overcast
Visibility: 6 miles , 10 km
Cloud details: Overcast 945 m
2018/10/22 19:50 EGPF 221950Z AUTO 25018G30KT 9999 OVC031 11/08 Q1031
 
EGPE - Inverness, United Kingdom
Distance from station: NE 71mi, 114km
Updated: 22/10/2018 20:50
Mostly cloudy
Mostly cloudy
 Wind from WSW
Wind: WSW 37 mph , 59 km/h, Gust: 53 mph , 85 km/h
Temperature: 12°C
Dew Point: 8°C
Humidity: 77%
Barometer: 1022 hPa
Clouds: Mostly cloudy
Visibility: 6 miles , 10 km
Cloud details: Few Clouds 853 m
Mostly cloudy 914 m
2018/10/22 19:50 EGPE 221950Z 25032G46KT 9999 FEW028 BKN030 12/08 Q1022
EGPI - Islay/Port Ellen, United Kingdom
Distance from station: SSW 81mi, 131km
Updated: 22/10/2018 20:20
Mostly cloudy
Mostly cloudy
 Wind from W
Wind: W 29 mph , 46 km/h
Temperature: 12°C
Dew Point: 9°C
Humidity: 82%
Barometer: 1033 hPa
Clouds: Mostly cloudy
Visibility: 6 miles , 10 km
Cloud details: Partly cloudy 579 m
Mostly cloudy 792 m
2018/10/22 19:20 EGPI 221920Z AUTO 27025KT 9999 SCT019/// BKN026/// 12/09 Q1033
EGPN - Dundee/Riverside, United Kingdom
Distance from station: E 86mi, 138km
Updated: 22/10/2018 20:20
Few Clouds
Few Clouds
 Wind from W
Wind: W 36 mph , 57 km/h
Temperature: 11°C
Dew Point: 7°C
Humidity: 77%
Barometer: 1025 hPa
Clouds: Few Clouds
Visibility: 6 miles , 10 km
Cloud details: Few Clouds 1067 m
2018/10/22 19:20 EGPN 221920Z 26031KT 9999 FEW035 11/07 Q1025
 
EGPK - Prestwick, United Kingdom
Distance from station: SSE 88mi, 141km
Updated: 22/10/2018 20:50
Partly cloudy
Partly cloudy
 Wind from W
Wind: W 21 mph , 33 km/h
Temperature: 12°C
Dew Point: 9°C
Humidity: 82%
Barometer: 1033 hPa
Clouds: Partly cloudy
Visibility: 6 miles , 10 km
Cloud details: Few Clouds 457 m
Partly cloudy 1067 m
2018/10/22 19:50 EGPK 221950Z 26018KT 9999 FEW015 SCT035 12/09 Q1033
EGPH - Edinburgh, United Kingdom
Distance from station: SE 89mi, 143km
Updated: 22/10/2018 20:50
Partly cloudy
Partly cloudy
 Wind from WSW
Wind: WSW 22 mph , 35 km/h
Temperature: 11°C
Dew Point: 6°C
Humidity: 72%
Barometer: 1028 hPa
Clouds: Partly cloudy
Visibility: 6 miles , 10 km
Cloud details: Partly cloudy 853 m
2018/10/22 19:50 EGPH 221950Z 25019KT 9999 SCT028 11/06 Q1028
EGQK - RAF Kinloss, United Kingdom
Distance from station: NE 90mi, 144km
Updated: 22/10/2018 19:50
Partly cloudy
Partly cloudy
 Wind from WSW
Wind: WSW 30 mph , 48 km/h, Gust: 45 mph , 72 km/h
Temperature: 12°C
Dew Point: 6°C
Humidity: 67%
Barometer: 1021 hPa
Clouds: Partly cloudy
Visibility: 6 miles , 10 km
Cloud details: Partly cloudy 975 m
2018/10/22 18:50 EGQK 221850Z AUTO 25026G39KT 9999 SCT032/// 12/06 Q1021
 
EGEC - Campbeltown, United Kingdom
Distance from station: S 90mi, 145km
Updated: 22/10/2018 17:50
NOT Current
Mostly cloudy
Mostly cloudy
 Wind from W
Wind: W 30 mph , 48 km/h
Temperature: 12°C
Dew Point: 8°C
Humidity: 77%
Barometer: 1034 hPa
Clouds: Mostly cloudy
Visibility: 6 miles , 10 km
Cloud details: Few Clouds 732 m
Mostly cloudy 853 m
2018/10/22 16:50 EGEC 221650Z 27026KT 9999 FEW024 BKN028 12/08 Q1034
EGQA - Tain Range, United Kingdom
Distance from station: NNE 91mi, 146km
Updated: 22/10/2018 14:50
NOT Current
Mostly cloudy
Mostly cloudy
 Wind from WSW
Wind: WSW 17 mph , 28 km/h
Clouds: Mostly cloudy
Visibility: 6 miles , 10 km
Cloud details: Mostly cloudy 914 m
2018/10/22 13:50 EGQA 221350Z 24015KT 9999 BKN030 10/// Q1025 BLU
EGQL - RAF Leuchars, United Kingdom
Distance from station: ESE 93mi, 149km
Updated: 22/10/2018 19:50
Partly cloudy
Partly cloudy
 Wind from W
Wind: W 26 mph , 43 km/h
Temperature: 11°C
Dew Point: 6°C
Humidity: 72%
Barometer: 1026 hPa
Clouds: Partly cloudy
Visibility: 6 miles , 10 km
Cloud details: Partly cloudy 1219 m
Partly cloudy 7315 m
2018/10/22 18:50 EGQL 221850Z 26023KT 9999 SCT040 SCT240 11/06 Q1026 BLU
 
EGPL - Benbecula, United Kingdom
Distance from station: WNW 96mi, 154km
Updated: 22/10/2018 20:50
Overcast
Overcast
 Wind from W
Wind: W 36 mph , 57 km/h, Gust: 48 mph , 78 km/h
Temperature: 12°C
Dew Point: 9°C
Humidity: 82%
Barometer: 1027 hPa
Clouds: Overcast
Visibility: 6 miles , 10 km
Cloud details: Overcast 488 m
2018/10/22 19:50 EGPL 221950Z AUTO 27031G42KT 9999 OVC016/// 12/09 Q1027
EGQS - RAF Lossiemouth, United Kingdom
Distance from station: NE 99mi, 160km
Updated: 22/10/2018 19:50
Overcast
Overcast
 Wind from WSW
Wind: WSW 25 mph , 41 km/h, Gust: 37 mph , 59 km/h
Temperature: 12°C
Dew Point: 6°C
Humidity: 67%
Barometer: 1021 hPa
Clouds: Overcast
Visibility: 6 miles , 10 km
Cloud details: Few Clouds 1158 m
Overcast 6096 m
2018/10/22 18:50 EGQS 221850Z 25022G32KT 9999 FEW038 OVC200 12/06 Q1021 BLU
EGPO - Stornoway, United Kingdom
Distance from station: NNW 111mi, 179km
Updated: 22/10/2018 20:50
Overcast
Overcast
 Wind from W
Wind: W 29 mph , 46 km/h, Gust: 46 mph , 74 km/h
Temperature: 12°C
Dew Point: 9°C
Humidity: 82%
Barometer: 1022 hPa
Clouds: Overcast
Visibility: 6 miles , 10 km
Cloud details: Overcast 457 m
2018/10/22 19:50 EGPO 221950Z AUTO 27025G40KT 9999 OVC015/// 12/09 Q1022
 
EGPD - Aberdeen/Dyce, United Kingdom
Distance from station: ENE 118mi, 190km
Updated: 22/10/2018 20:20
Clear
Clear
 Wind from W
Wind: W 16 mph , 26 km/h
Temperature: 12°C
Dew Point: 4°C
Humidity: 58%
Barometer: 1022 hPa
Clouds: Clear
Visibility: 6 miles , 10 km
2018/10/22 19:20 EGPD 221920Z AUTO 27014KT 240V300 9999 NCD 12/04 Q1022
EGAE - Eglinton/Londond, United Kingdom
Distance from station: SSW 138mi, 222km
Updated: 22/10/2018 20:50
Few Clouds
Few Clouds
 Wind from WSW
Wind: WSW 20 mph , 31 km/h
Temperature: 11°C
Dew Point: 8°C
Humidity: 82%
Barometer: 1035 hPa
Clouds: Few Clouds
Visibility: 6 miles , 10 km
Cloud details: Few Clouds 732 m
2018/10/22 19:50 EGAE 221950Z 25017KT 9999 FEW024 11/08 Q1035
EGPC - Wick, United Kingdom
Distance from station: NNE 144mi, 232km
Updated: 22/10/2018 20:50
Light rain, Overcast
Light rain, Overcast
 Wind from W
Wind: W 16 mph , 26 km/h
Temperature: 11°C
Dew Point: 9°C
Humidity: 88%
Barometer: 1017 hPa
Summary: Light rain
Clouds: Overcast
Visibility: 6 miles , 10 km
Cloud details: Mostly cloudy 518 m
Overcast 1219 m
2018/10/22 19:50 EGPC 221950Z AUTO 27014KT 9999 -RA BKN017/// OVC040/// 11/09 Q1017

Metar display script from Saratoga-Weather.org